Tidehead, Canada
Current Conditions -  °F | °C
As of 3:00 PM on Monday 22 Dec 2014 (Local Time) from CZBF Reporting Station
Light Snow Light Snow  
Wind Chill: 23°   Ceiling: 1700
Heat Index: 23°   Visibility: 12mi
Dew Point: 19°   Wind: 2mph
Humidity: 86%   Direction: NA
Pressure: 30.43"   Gusts: NA
Location:  47.98°N, 66.79°W
Report Text: CZBF 221900Z VRB02KT 12SM -SN OVC017 M05/M07 A3043 RMK SC8 SLP309
Loading
Personal Weather Stations






























Interactive Weather Map New forecast layout! Learn more

10-Day Weather Forecast

Advertisements
Track Severe Weather on mobile